Dyna Crane — 3EDQ9 — position and weather

sailwx.info

Track history (hours):
 
Tides and Currents Weather Stations Pressure Air Temp Water Temp Dewpoint Dewpoint Depression Visibility Wind Speed Wind Dir Waves Ship Positions

Dyna Crane

Last reported at 2014-Jan-23 01:20 UTC. Time now 2014-Jul-26 03:07 UTC.
Position S 27°08' E 153°21'.
Warning: this ship's position is months out of date.

Length 190 m; draft 12.5 m.

Type: Ship. MMSI: 371698000.

Date/timePositionNaut miles runAvg speedWind from/ knotsBaromVisibWave heightAir tempDewpointWater temp
2014-Jan-23 01:20S 27°08' E 153°21'810.7
2014-Jan-23 00:34S 27°16' E 153°17'10 9.6
2014-Jan-22 23:34S 27°22' E 153°10'1 0.9
2014-Jan-22 22:32S 27°23' E 153°10'0 0.0
2014-Jan-22 21:32S 27°23' E 153°10'0 0.0
2014-Jan-22 20:32S 27°23' E 153°10'0 0.0
2014-Jan-22 19:32S 27°23' E 153°10'0 0.0
2014-Jan-22 18:32S 27°23' E 153°10'0 0.0
2014-Jan-22 17:32S 27°23' E 153°10'0 0.0
2014-Jan-22 16:32S 27°23' E 153°10'0 0.0
2014-Jan-22 15:32S 27°23' E 153°10'0 0.0
2014-Jan-22 14:32S 27°23' E 153°10'0 0.0
2014-Jan-22 13:32S 27°23' E 153°10'0 0.0
2014-Jan-22 12:32S 27°23' E 153°10'0 0.0
2014-Jan-22 11:32S 27°23' E 153°10'0 0.0
2014-Jan-22 10:32S 27°23' E 153°10'0 0.0
2014-Jan-22 09:32S 27°23' E 153°10'0 0.0
2014-Jan-22 08:32S 27°23' E 153°10'0 0.0
2014-Jan-22 07:32S 27°23' E 153°10'0 0.0
2014-Jan-22 06:32S 27°23' E 153°10'0 0.0
2014-Jan-22 05:32S 27°23' E 153°10'0 0.0
2014-Jan-22 04:32S 27°23' E 153°10'0 0.0
2014-Jan-22 03:32S 27°23' E 153°10'0 0.0
2014-Jan-22 02:32S 27°23' E 153°10'0 0.0
2014-Jan-22 01:32S 27°23' E 153°10'0 0.0
2014-Jan-22 00:32S 27°23' E 153°10'0 0.0
2014-Jan-21 23:32S 27°23' E 153°10'0 0.0
2014-Jan-21 22:32S 27°23' E 153°10'0 0.0
2014-Jan-21 21:32S 27°23' E 153°10'0 0.0
2014-Jan-21 20:32S 27°23' E 153°10'0 0.0
2014-Jan-21 19:32S 27°23' E 153°10'0 0.0
2014-Jan-21 18:32S 27°23' E 153°10'1 1.1
2014-Jan-21 17:33S 27°22' E 153°10'1110.6
2014-Jan-21 16:34S 27°13' E 153°16'1110.6
2014-Jan-21 15:33S 27°03' E 153°16'1514.2
2014-Jan-21 14:31S 26°50' E 153°09'8 3.8
2014-Jan-21 12:31S 26°44' E 153°14'0 0.0
2014-Jan-21 11:16S 26°44' E 153°14'0 0.1
2014-Jan-21 10:31S 26°44' E 153°14'0 0.0
2014-Jan-21 09:31S 26°44' E 153°14'0 0.0
2014-Jan-21 08:31S 26°44' E 153°14'0 0.1
2014-Jan-21 07:31S 26°44' E 153°14'0 0.0
2014-Jan-21 06:31S 26°44' E 153°14'0 0.0
2014-Jan-21 05:25S 26°44' E 153°14'0 0.0
2014-Jan-21 04:31S 26°44' E 153°14'0 0.0
2014-Jan-21 01:13S 26°44' E 153°14'0 0.0
2014-Jan-21 00:31S 26°44' E 153°14'0 0.0
2014-Jan-20 22:22S 26°44' E 153°14'0 0.0
2014-Jan-20 21:28S 26°44' E 153°14'0 0.0
2014-Jan-20 20:28S 26°44' E 153°14'0 0.0
2014-Jan-20 19:28S 26°44' E 153°14'0 0.1
2014-Jan-20 18:31S 26°44' E 153°14'0 0.0
2014-Jan-20 17:31S 26°44' E 153°14'0 0.0
2014-Jan-20 16:28S 26°44' E 153°14'0 0.0
2014-Jan-20 15:31S 26°44' E 153°14'0 0.0
2014-Jan-20 14:31S 26°44' E 153°14'0 0.1
2014-Jan-20 13:31S 26°44' E 153°14'0 0.1
2014-Jan-20 12:28S 26°44' E 153°14'0 0.0
2014-Jan-20 09:22S 26°44' E 153°14'0 0.2
2014-Jan-20 08:33S 26°44' E 153°14'6 5.7
2014-Jan-20 07:32S 26°39' E 153°19'1515.5
2014-Jan-20 06:33S 26°24' E 153°21'2015.4
2014-Jan-20 05:16S 26°05' E 153°26'  
Track history (hours):
 
Tides and Currents Weather Stations Pressure Air Temp Water Temp Dewpoint Dewpoint Depression Visibility Wind Speed Wind Dir Waves Ship Positions

Dyna Crane

Last reported at 2014-Jan-23 01:20 UTC. Time now 2014-Jul-26 03:07 UTC.
Position S 27°08' E 153°21'.
Warning: this ship's position is months out of date.

Length 190 m; draft 12.5 m.

Type: Ship. MMSI: 371698000.

Date/timePositionNaut miles runAvg speedWind from/ knotsBaromVisibWave heightAir tempDewpointWater temp
2014-Jan-23 01:20S 27°08' E 153°21'810.7
2014-Jan-23 00:34S 27°16' E 153°17'10 9.6
2014-Jan-22 23:34S 27°22' E 153°10'1 0.9
2014-Jan-22 22:32S 27°23' E 153°10'0 0.0
2014-Jan-22 21:32S 27°23' E 153°10'0 0.0
2014-Jan-22 20:32S 27°23' E 153°10'0 0.0
2014-Jan-22 19:32S 27°23' E 153°10'0 0.0
2014-Jan-22 18:32S 27°23' E 153°10'0 0.0
2014-Jan-22 17:32S 27°23' E 153°10'0 0.0
2014-Jan-22 16:32S 27°23' E 153°10'0 0.0
2014-Jan-22 15:32S 27°23' E 153°10'0 0.0
2014-Jan-22 14:32S 27°23' E 153°10'0 0.0
2014-Jan-22 13:32S 27°23' E 153°10'0 0.0
2014-Jan-22 12:32S 27°23' E 153°10'0 0.0
2014-Jan-22 11:32S 27°23' E 153°10'0 0.0
2014-Jan-22 10:32S 27°23' E 153°10'0 0.0
2014-Jan-22 09:32S 27°23' E 153°10'0 0.0
2014-Jan-22 08:32S 27°23' E 153°10'0 0.0
2014-Jan-22 07:32S 27°23' E 153°10'0 0.0
2014-Jan-22 06:32S 27°23' E 153°10'0 0.0
2014-Jan-22 05:32S 27°23' E 153°10'0 0.0
2014-Jan-22 04:32S 27°23' E 153°10'0 0.0
2014-Jan-22 03:32S 27°23' E 153°10'0 0.0
2014-Jan-22 02:32S 27°23' E 153°10'0 0.0
2014-Jan-22 01:32S 27°23' E 153°10'0 0.0
2014-Jan-22 00:32S 27°23' E 153°10'0 0.0
2014-Jan-21 23:32S 27°23' E 153°10'0 0.0
2014-Jan-21 22:32S 27°23' E 153°10'0 0.0
2014-Jan-21 21:32S 27°23' E 153°10'0 0.0
2014-Jan-21 20:32S 27°23' E 153°10'0 0.0
2014-Jan-21 19:32S 27°23' E 153°10'0 0.0
2014-Jan-21 18:32S 27°23' E 153°10'1 1.1
2014-Jan-21 17:33S 27°22' E 153°10'1110.6
2014-Jan-21 16:34S 27°13' E 153°16'1110.6
2014-Jan-21 15:33S 27°03' E 153°16'1514.2
2014-Jan-21 14:31S 26°50' E 153°09'8 3.8
2014-Jan-21 12:31S 26°44' E 153°14'0 0.0
2014-Jan-21 11:16S 26°44' E 153°14'0 0.1
2014-Jan-21 10:31S 26°44' E 153°14'0 0.0
2014-Jan-21 09:31S 26°44' E 153°14'0 0.0
2014-Jan-21 08:31S 26°44' E 153°14'0 0.1
2014-Jan-21 07:31S 26°44' E 153°14'0 0.0
2014-Jan-21 06:31S 26°44' E 153°14'0 0.0
2014-Jan-21 05:25S 26°44' E 153°14'0 0.0
2014-Jan-21 04:31S 26°44' E 153°14'0 0.0
2014-Jan-21 01:13S 26°44' E 153°14'0 0.0
2014-Jan-21 00:31S 26°44' E 153°14'0 0.0
2014-Jan-20 22:22S 26°44' E 153°14'0 0.0
2014-Jan-20 21:28S 26°44' E 153°14'0 0.0
2014-Jan-20 20:28S 26°44' E 153°14'0 0.0
2014-Jan-20 19:28S 26°44' E 153°14'0 0.1
2014-Jan-20 18:31S 26°44' E 153°14'0 0.0
2014-Jan-20 17:31S 26°44' E 153°14'0 0.0
2014-Jan-20 16:28S 26°44' E 153°14'0 0.0
2014-Jan-20 15:31S 26°44' E 153°14'0 0.0
2014-Jan-20 14:31S 26°44' E 153°14'0 0.1
2014-Jan-20 13:31S 26°44' E 153°14'0 0.1
2014-Jan-20 12:28S 26°44' E 153°14'0 0.0
2014-Jan-20 09:22S 26°44' E 153°14'0 0.2
2014-Jan-20 08:33S 26°44' E 153°14'6 5.7
2014-Jan-20 07:32S 26°39' E 153°19'1515.5
2014-Jan-20 06:33S 26°24' E 153°21'2015.4
2014-Jan-20 05:16S 26°05' E 153°26'  

Dump ship's entire track history